Time;durP1;ratioP1;P1;durP2;ratioP2;P2;SDS_P1;SDS_P2;PMS_P1;PMS_P2;Temp;Humidity;BMP_temperature;BMP_pressure;BME280_temperature;BME280_humidity;BME280_pressure;Samples;Min_cycle;Max_cycle;Signal;HPM_P1;HPM_P2
2022/09/07 00:01:00;;;;;;;12.50;9.70;;;20.40;1.00;;;;;;4992497;28;20448;-66
2022/09/07 00:03:26;;;;;;;13.70;10.53;;;20.40;1.00;;;;;;4992044;28;20483;-65
2022/09/07 00:05:52;;;;;;;14.77;10.30;;;20.50;1.00;;;;;;4991013;28;20200;-66
2022/09/07 00:08:22;;;;;;;18.60;11.23;;;20.50;1.00;;;;;;4990890;28;20415;-66
2022/09/07 00:10:59;;;;;;;18.07;10.40;;;20.60;1.00;;;;;;4992077;28;20657;-66
2022/09/07 00:13:28;;;;;;;17.77;11.10;;;20.70;1.00;;;;;;4991940;28;20522;-66
2022/09/07 00:15:54;;;;;;;13.20;10.80;;;20.60;1.00;;;;;;4991098;28;20447;-67
2022/09/07 00:18:19;;;;;;;15.27;10.80;;;20.60;1.00;;;;;;4991343;28;20885;-67
2022/09/07 00:20:46;;;;;;;13.30;10.20;;;20.60;1.00;;;;;;4991756;28;20470;-66
2022/09/07 00:23:11;;;;;;;13.37;10.80;;;20.60;1.00;;;;;;4991463;28;20227;-66
2022/09/07 00:25:38;;;;;;;12.57;9.80;;;20.70;99.90;;;;;;4991827;28;20436;-66
2022/09/07 00:28:06;;;;;;;10.20;9.00;;;20.70;99.90;;;;;;4991506;28;20181;-66
2022/09/07 00:30:32;;;;;;;19.10;11.57;;;20.70;99.90;;;;;;4991882;28;20471;-66
2022/09/07 00:32:58;;;;;;;15.97;9.90;;;20.80;99.90;;;;;;5001855;28;20452;-66
2022/09/07 00:35:24;;;;;;;11.93;9.80;;;20.70;99.90;;;;;;4992005;28;20887;-66
2022/09/07 00:37:49;;;;;;;10.50;9.40;;;20.70;99.90;;;;;;4991029;28;20172;-65
2022/09/07 00:40:15;;;;;;;11.47;10.10;;;20.70;99.90;;;;;;4990609;28;20212;-65
2022/09/07 00:42:41;;;;;;;10.33;9.27;;;20.70;99.90;;;;;;4991671;28;20198;-66
2022/09/07 00:45:16;;;;;;;11.60;10.20;;;20.70;99.90;;;;;;4991284;28;20201;-66
2022/09/07 00:47:48;;;;;;;16.63;10.13;;;20.70;99.90;;;;;;4991302;28;20180;-66
2022/09/07 00:50:29;;;;;;;13.93;9.43;;;20.70;99.90;;;;;;4990451;28;20931;-65
2022/09/07 00:53:21;;;;;;;17.80;10.20;;;20.70;99.90;;;;;;4991750;28;20415;-66
2022/09/07 00:55:49;;;;;;;11.70;10.10;;;20.60;99.90;;;;;;4991384;28;20424;-66
2022/09/07 00:58:16;;;;;;;13.77;9.77;;;20.60;99.90;;;;;;4990168;28;20416;-66
2022/09/07 01:00:45;;;;;;;14.63;10.63;;;20.60;99.90;;;;;;4990317;28;20408;-64
2022/09/07 01:03:11;;;;;;;13.13;9.07;;;20.60;99.90;;;;;;4991051;28;20419;-65
2022/09/07 01:06:05;;;;;;;15.63;9.77;;;20.40;1.00;;;;;;4990807;28;20427;-64
2022/09/07 01:08:31;;;;;;;15.53;9.87;;;20.50;1.00;;;;;;4989634;28;20443;-65
2022/09/07 01:10:59;;;;;;;23.23;10.43;;;20.40;1.00;;;;;;4991190;28;20543;-65
2022/09/07 01:13:26;;;;;;;13.77;10.10;;;20.50;1.00;;;;;;4990700;28;20482;-65
2022/09/07 01:15:54;;;;;;;14.00;9.33;;;20.40;1.00;;;;;;4990656;28;20431;-65
2022/09/07 01:18:28;;;;;;;9.63;8.63;;;20.40;1.00;;;;;;4989978;28;20512;-66
2022/09/07 01:21:15;;;;;;;10.27;9.27;;;20.50;1.00;;;;;;4991099;28;20409;-66
2022/09/07 01:24:34;;;;;;;9.67;8.23;;;20.40;1.00;;;;;;4991720;28;20404;-65
2022/09/07 01:27:24;;;;;;;10.10;9.10;;;20.50;99.90;;;;;;4987950;28;20486;-66
2022/09/07 01:30:05;;;;;;;12.77;9.60;;;20.50;99.90;;;;;;4990382;28;20738;-66
2022/09/07 01:32:55;;;;;;;9.30;8.40;;;20.40;1.00;;;;;;4992360;28;20900;-65
2022/09/07 01:35:43;;;;;;;12.93;9.27;;;20.40;1.00;;;;;;5004685;28;20462;-66
2022/09/07 01:38:42;;;;;;;11.43;9.70;;;20.30;1.00;;;;;;5000830;28;20415;-66
2022/09/07 01:41:47;;;;;;;9.73;8.73;;;20.40;1.00;;;;;;4990535;28;20412;-66
2022/09/07 01:44:24;;;;;;;12.27;9.60;;;20.20;1.00;;;;;;4990203;28;20837;-66
2022/09/07 01:47:01;;;;;;;10.87;9.77;;;20.00;1.00;;;;;;4990358;28;20400;-65
2022/09/07 01:49:29;;;;;;;14.03;9.20;;;19.90;99.90;;;;;;4989886;28;20895;-66
2022/09/07 01:52:01;;;;;;;17.63;9.33;;;20.00;99.90;;;;;;4990439;28;20825;-65
2022/09/07 01:54:37;;;;;;;12.50;10.70;;;20.10;5.70;;;;;;4989901;28;20806;-65
2022/09/07 01:57:18;;;;;;;13.83;10.07;;;20.10;1.00;;;;;;4989956;28;20854;-65
2022/09/07 01:59:52;;;;;;;10.70;9.57;;;20.10;31.50;;;;;;4989762;28;20897;-66
2022/09/07 02:02:27;;;;;;;15.30;10.00;;;20.00;99.90;;;;;;4990508;28;20786;-66
2022/09/07 02:05:07;;;;;;;22.80;10.37;;;20.10;92.40;;;;;;4990024;28;20446;-66
2022/09/07 02:07:51;;;;;;;18.23;9.97;;;20.10;23.30;;;;;;4989818;28;20412;-65
2022/09/07 02:10:31;;;;;;;11.90;10.20;;;20.20;1.00;;;;;;4989427;28;20408;-65
2022/09/07 02:13:21;;;;;;;15.23;9.93;;;20.20;1.00;;;;;;4994123;28;20408;-65
2022/09/07 02:15:58;;;;;;;12.70;10.13;;;20.10;1.00;;;;;;4994371;28;20423;-65
2022/09/07 02:18:29;;;;;;;11.67;10.50;;;20.10;1.00;;;;;;4993309;28;20466;-66
2022/09/07 02:20:58;;;;;;;11.57;10.47;;;20.00;68.10;;;;;;4993822;28;20412;-66
2022/09/07 02:23:29;;;;;;;11.00;9.23;;;19.90;99.90;;;;;;4993250;28;20671;-66
2022/09/07 02:26:15;;;;;;;18.10;9.57;;;20.00;10.00;;;;;;4994163;28;20484;-66
2022/09/07 02:28:41;;;;;;;16.00;11.30;;;20.00;7.70;;;;;;4993173;28;20403;-65
2022/09/07 02:31:07;;;;;;;16.17;9.80;;;20.00;1.00;;;;;;4993906;28;20859;-65
2022/09/07 02:33:33;;;;;;;20.17;9.60;;;20.00;1.00;;;;;;4993786;28;20169;-65
2022/09/07 02:36:00;;;;;;;11.40;9.23;;;20.00;1.00;;;;;;4994566;28;20204;-66
2022/09/07 02:38:26;;;;;;;11.07;9.50;;;20.00;1.00;;;;;;4996186;28;20169;-66
2022/09/07 02:40:54;;;;;;;11.83;9.40;;;20.00;1.00;;;;;;5009730;28;21078;-66
2022/09/07 02:43:21;;;;;;;16.00;9.30;;;20.10;1.00;;;;;;5003466;28;20173;-66
2022/09/07 02:46:16;;;;;;;8.27;7.47;;;20.00;1.00;;;;;;4995496;28;20490;-66
2022/09/07 02:48:48;;;;;;;14.53;8.67;;;20.00;1.00;;;;;;5000593;28;20971;-66
2022/09/07 02:51:43;;;;;;;17.13;9.40;;;20.00;1.00;;;;;;4972768;28;20515;-66
2022/09/07 02:54:23;;;;;;;12.20;8.83;;;20.00;1.00;;;;;;4983414;28;20414;-66
2022/09/07 02:57:08;;;;;;;11.10;8.10;;;20.00;1.00;;;;;;4993036;28;20396;-66
2022/09/07 03:00:09;;;;;;;10.73;8.27;;;20.00;1.00;;;;;;4992620;28;20827;-66
2022/09/07 03:02:35;;;;;;;9.30;7.90;;;20.00;1.00;;;;;;4993030;28;20461;-66
2022/09/07 03:05:13;;;;;;;10.43;8.33;;;20.00;1.00;;;;;;4993024;28;20412;-66
2022/09/07 03:07:54;;;;;;;10.93;7.90;;;20.00;1.00;;;;;;4972997;28;20170;-66
2022/09/07 03:10:21;;;;;;;16.03;7.63;;;20.10;1.00;;;;;;4972521;28;20463;-66
2022/09/07 03:12:48;;;;;;;9.43;8.20;;;20.10;99.90;;;;;;4973661;28;20409;-67
2022/09/07 03:15:20;;;;;;;14.40;7.60;;;20.10;99.90;;;;;;4973141;28;20425;-67
2022/09/07 03:17:46;;;;;;;11.70;7.73;;;20.00;99.90;;;;;;4972840;28;20559;-66
2022/09/07 03:20:12;;;;;;;7.93;7.13;;;20.00;99.90;;;;;;4973189;28;20492;-67
2022/09/07 03:22:38;;;;;;;9.13;7.33;;;19.90;99.90;;;;;;4972538;28;20256;-67
2022/09/07 03:25:04;;;;;;;14.37;7.57;;;19.90;99.90;;;;;;4972803;28;20429;-67
2022/09/07 03:27:31;;;;;;;11.27;7.73;;;19.90;99.90;;;;;;4973037;28;20564;-66
2022/09/07 03:29:58;;;;;;;10.17;7.93;;;19.90;99.90;;;;;;4972609;28;20421;-66
2022/09/07 03:32:24;;;;;;;13.97;7.70;;;20.00;99.90;;;;;;4973546;28;20456;-67
2022/09/07 03:34:50;;;;;;;11.67;7.00;;;20.00;99.90;;;;;;4972970;28;20538;-67
2022/09/07 03:37:16;;;;;;;13.10;6.83;;;20.00;99.90;;;;;;4972799;28;20421;-67
2022/09/07 03:39:42;;;;;;;14.80;8.23;;;20.00;99.90;;;;;;4972389;28;20770;-65
2022/09/07 03:42:08;;;;;;;15.33;7.53;;;20.00;99.90;;;;;;4977690;28;20224;-66
2022/09/07 03:44:33;;;;;;;17.23;8.70;;;20.00;99.90;;;;;;4992150;28;20739;-66
2022/09/07 03:46:59;;;;;;;8.17;7.37;;;20.00;99.90;;;;;;4992349;28;20706;-66
2022/09/07 03:49:25;;;;;;;8.63;7.03;;;20.00;99.90;;;;;;5000041;28;20267;-66
2022/09/07 03:51:50;;;;;;;22.83;9.03;;;20.00;99.90;;;;;;5008201;28;20230;-66
2022/09/07 03:54:16;;;;;;;8.60;6.93;;;20.00;99.90;;;;;;4995601;28;20208;-66
2022/09/07 03:56:42;;;;;;;8.20;7.40;;;20.00;99.90;;;;;;4992220;28;20337;-66
2022/09/07 03:59:07;;;;;;;11.20;7.60;;;20.00;99.90;;;;;;4991463;28;20177;-66
2022/09/07 04:01:33;;;;;;;11.30;7.87;;;20.10;99.90;;;;;;4992403;28;20653;-66
2022/09/07 04:04:01;;;;;;;7.80;6.60;;;20.10;99.90;;;;;;4991930;28;20176;-66
2022/09/07 04:06:28;;;;;;;19.67;8.60;;;20.00;99.90;;;;;;4992185;28;20180;-66
2022/09/07 04:08:55;;;;;;;15.10;7.47;;;20.00;99.90;;;;;;4990720;28;20507;-66
2022/09/07 04:11:21;;;;;;;11.27;6.43;;;20.00;99.90;;;;;;4991923;28;20490;-66
2022/09/07 04:13:47;;;;;;;9.37;7.47;;;19.90;1.00;;;;;;4991480;28;20412;-66
2022/09/07 04:16:16;;;;;;;17.30;7.17;;;19.90;1.00;;;;;;4992013;28;20765;-66
2022/09/07 04:18:43;;;;;;;16.60;7.00;;;19.90;1.00;;;;;;4990855;28;20173;-66
2022/09/07 04:21:09;;;;;;;10.60;6.23;;;20.00;99.90;;;;;;4991713;28;20419;-66
2022/09/07 04:23:39;;;;;;;12.20;6.63;;;19.90;1.00;;;;;;4991365;28;20420;-66
2022/09/07 04:26:06;;;;;;;9.80;6.97;;;19.80;1.00;;;;;;4991540;28;20435;-66
2022/09/07 04:28:32;;;;;;;12.80;7.20;;;19.80;1.00;;;;;;4990918;28;20971;-66
2022/09/07 04:31:01;;;;;;;18.63;7.70;;;19.70;1.00;;;;;;4991701;28;20459;-66
2022/09/07 04:33:30;;;;;;;18.33;8.50;;;19.80;1.00;;;;;;4991207;28;20500;-66
2022/09/07 04:35:59;;;;;;;28.40;7.77;;;19.80;1.00;;;;;;4991521;28;20546;-66
2022/09/07 04:38:25;;;;;;;32.77;8.07;;;19.90;1.00;;;;;;4990193;28;20408;-66
2022/09/07 04:41:02;;;;;;;14.73;7.67;;;20.00;1.00;;;;;;4991219;28;20546;-66
2022/09/07 04:43:28;;;;;;;20.30;8.77;;;20.00;1.00;;;;;;4991251;28;20396;-66
2022/09/07 04:45:54;;;;;;;13.00;8.90;;;19.90;1.00;;;;;;4991585;28;20502;-66
2022/09/07 04:48:20;;;;;;;27.03;8.37;;;20.00;1.00;;;;;;4990443;28;20828;-66
2022/09/07 04:50:46;;;;;;;12.17;8.13;;;20.00;1.00;;;;;;4991411;28;20223;-66
2022/09/07 04:53:12;;;;;;;9.03;6.73;;;20.00;1.00;;;;;;4992974;28;20904;-66
2022/09/07 04:55:38;;;;;;;11.73;7.43;;;20.00;1.00;;;;;;5006657;28;20471;-66
2022/09/07 04:58:03;;;;;;;16.43;9.00;;;20.00;1.00;;;;;;4990519;28;20260;-66
2022/09/07 05:00:29;;;;;;;13.50;8.40;;;20.00;1.00;;;;;;4990681;28;20187;-66
2022/09/07 05:02:55;;;;;;;38.87;10.60;;;20.00;1.00;;;;;;4986921;28;20252;-66
2022/09/07 05:05:20;;;;;;;23.43;10.40;;;20.00;1.00;;;;;;4989947;28;20200;-66
2022/09/07 05:07:46;;;;;;;17.40;9.10;;;20.00;76.70;;;;;;4990741;28;20569;-66
2022/09/07 05:10:12;;;;;;;10.23;8.23;;;20.00;61.70;;;;;;4990379;28;20231;-66
2022/09/07 05:12:38;;;;;;;14.83;8.60;;;20.00;81.90;;;;;;4991000;28;20251;-66
2022/09/07 05:15:04;;;;;;;17.30;7.80;;;20.00;99.90;;;;;;4990915;28;20759;-66
2022/09/07 05:17:30;;;;;;;13.83;7.57;;;20.00;96.50;;;;;;4990417;28;20200;-66
2022/09/07 05:19:57;;;;;;;29.03;10.40;;;20.00;72.00;;;;;;4989598;28;20424;-66
2022/09/07 05:22:24;;;;;;;10.37;7.53;;;20.10;39.80;;;;;;4990731;28;20191;-66
2022/09/07 05:24:49;;;;;;;11.60;7.13;;;20.10;58.50;;;;;;4988587;28;20455;-66
2022/09/07 05:27:15;;;;;;;14.30;7.00;;;20.30;1.00;;;;;;4989559;28;20434;-65
2022/09/07 05:29:41;;;;;;;15.40;7.37;;;20.70;1.00;;;;;;4985384;28;20177;-65
2022/09/07 05:32:07;;;;;;;13.70;7.47;;;20.90;99.90;;;;;;4988800;28;20276;-65
2022/09/07 05:34:33;;;;;;;32.30;9.77;;;21.00;37.60;;;;;;4989206;28;20486;-66
2022/09/07 05:36:59;;;;;;;11.37;6.50;;;21.00;1.00;;;;;;4989834;28;20280;-67
2022/09/07 05:39:25;;;;;;;15.07;6.40;;;21.10;1.00;;;;;;4987410;28;20181;-65
2022/09/07 05:41:51;;;;;;;23.43;7.80;;;21.20;99.90;;;;;;4989559;28;20416;-64
2022/09/07 05:44:17;;;;;;;14.80;7.13;;;21.30;99.90;;;;;;4989511;28;20902;-65
2022/09/07 05:46:43;;;;;;;28.67;8.73;;;22.90;1.00;;;;;;4989366;28;20195;-65
2022/09/07 05:49:09;;;;;;;15.10;7.17;;;24.70;78.10;;;;;;4987263;28;20186;-65
2022/09/07 05:51:36;;;;;;;42.43;8.77;;;26.00;1.00;;;;;;4988240;28;20463;-65
2022/09/07 05:54:02;;;;;;;24.77;7.00;;;27.10;1.00;;;;;;4989311;28;20579;-65
2022/09/07 05:56:27;;;;;;;22.77;7.30;;;27.70;99.90;;;;;;4991546;28;20435;-65
2022/09/07 05:58:53;;;;;;;18.63;6.60;;;27.90;99.90;;;;;;4996223;28;20490;-66
2022/09/07 06:01:19;;;;;;;29.60;8.43;;;28.30;99.90;;;;;;4999363;28;20192;-65
2022/09/07 06:03:45;;;;;;;22.03;8.07;;;28.40;99.90;;;;;;5000353;28;20219;-65
2022/09/07 06:06:16;;;;;;;29.47;10.23;;;28.70;99.90;;;;;;4991386;28;20197;-65
2022/09/07 06:08:52;;;;;;;61.20;12.50;;;28.80;99.90;;;;;;4989534;28;20645;-65
2022/09/07 06:11:20;;;;;;;14.73;8.00;;;29.20;99.90;;;;;;4991547;28;20493;-65
2022/09/07 06:13:46;;;;;;;38.63;10.63;;;29.10;99.90;;;;;;4992940;28;20435;-65
2022/09/07 06:16:13;;;;;;;29.13;9.60;;;28.40;99.90;;;;;;4977314;28;20798;-65
2022/09/07 06:18:44;;;;;;;30.80;9.90;;;27.20;99.90;;;;;;4987444;28;20181;-65
2022/09/07 06:21:21;;;;;;;17.97;9.17;;;26.30;99.90;;;;;;4988618;28;20414;-65
2022/09/07 06:23:47;;;;;;;20.43;8.70;;;26.00;99.90;;;;;;4981844;28;20432;-66
2022/09/07 06:26:15;;;;;;;15.70;9.40;;;26.00;99.90;;;;;;4969558;28;20758;-65
2022/09/07 06:28:43;;;;;;;20.50;8.60;;;25.80;99.90;;;;;;4968672;28;20510;-65
2022/09/07 06:31:09;;;;;;;18.80;8.07;;;25.80;99.90;;;;;;4977810;28;20455;-65
2022/09/07 06:33:36;;;;;;;19.13;8.90;;;25.50;99.90;;;;;;4988460;28;20404;-67
2022/09/07 06:36:08;;;;;;;83.00;14.03;;;25.60;99.90;;;;;;4983575;28;20453;-67
2022/09/07 06:38:36;;;;;;;51.10;12.63;;;25.40;99.90;;;;;;4973199;28;20428;-67
2022/09/07 06:41:10;;;;;;;51.90;11.00;;;24.90;99.90;;;;;;4988800;28;20439;-67
2022/09/07 06:43:36;;;;;;;16.23;8.50;;;24.50;99.90;;;;;;4974040;28;20424;-66
2022/09/07 06:46:03;;;;;;;37.83;11.00;;;24.00;99.90;;;;;;4989060;28;20783;-66
2022/09/07 06:48:29;;;;;;;35.07;10.43;;;23.70;1.00;;;;;;4986724;28;20648;-66
2022/09/07 06:51:02;;;;;;;19.23;8.07;;;23.60;1.00;;;;;;4986410;28;20455;-65
2022/09/07 06:53:33;;;;;;;14.73;8.00;;;23.40;1.00;;;;;;4991452;28;20185;-65
2022/09/07 06:56:00;;;;;;;13.40;8.20;;;23.10;1.00;;;;;;4995515;28;20487;-65
2022/09/07 06:58:26;;;;;;;18.93;8.20;;;22.90;1.00;;;;;;4992736;28;20867;-66
2022/09/07 07:00:53;;;;;;;16.57;9.03;;;22.90;1.00;;;;;;5001971;28;20472;-65
2022/09/07 07:03:19;;;;;;;14.60;7.30;;;22.70;92.70;;;;;;4995323;28;20498;-66
2022/09/07 07:05:56;;;;;;;13.80;7.90;;;22.60;99.90;;;;;;5001294;28;20456;-65
2022/09/07 07:08:24;;;;;;;16.17;8.07;;;22.50;99.90;;;;;;4990778;28;20407;-66
2022/09/07 07:10:51;;;;;;;26.00;8.83;;;22.40;1.00;;;;;;4990022;28;20455;-65
2022/09/07 07:13:17;;;;;;;31.93;8.83;;;22.40;1.00;;;;;;4990188;28;20755;-65
2022/09/07 07:15:43;;;;;;;27.67;8.73;;;22.40;1.00;;;;;;4989908;28;20428;-66
2022/09/07 07:18:10;;;;;;;18.97;10.20;;;22.30;1.00;;;;;;4988349;28;20526;-66
2022/09/07 07:20:38;;;;;;;16.90;8.10;;;22.30;1.00;;;;;;4989007;28;20947;-65
2022/09/07 07:23:04;;;;;;;15.73;8.00;;;22.30;1.00;;;;;;4990497;28;20869;-65
2022/09/07 07:25:32;;;;;;;14.90;8.10;;;22.20;47.50;;;;;;4989540;28;20439;-65
2022/09/07 07:27:58;;;;;;;21.80;8.50;;;22.20;24.90;;;;;;4989975;28;20439;-65
2022/09/07 07:30:24;;;;;;;27.60;9.47;;;22.30;1.00;;;;;;4989570;28;20516;-65
2022/09/07 07:32:50;;;;;;;11.53;6.57;;;22.30;61.80;;;;;;4988609;28;20185;-65
2022/09/07 07:35:16;;;;;;;20.70;8.30;;;22.40;1.00;;;;;;4989875;28;20482;-66
2022/09/07 07:37:42;;;;;;;26.10;9.10;;;22.50;1.00;;;;;;4989952;28;20545;-66
2022/09/07 07:40:10;;;;;;;25.83;8.67;;;22.70;1.00;;;;;;4989327;28;20220;-66
2022/09/07 07:42:38;;;;;;;23.90;8.33;;;22.90;1.00;;;;;;4989307;28;20622;-66
2022/09/07 07:45:05;;;;;;;18.20;8.97;;;22.90;1.00;;;;;;4988721;28;20800;-65
2022/09/07 07:47:31;;;;;;;21.43;8.47;;;22.80;1.00;;;;;;4989264;28;20416;-65
2022/09/07 07:49:57;;;;;;;21.23;7.73;;;22.90;1.00;;;;;;4989630;28;20571;-66
2022/09/07 07:52:23;;;;;;;19.87;8.33;;;23.10;1.00;;;;;;4989719;28;20664;-66
2022/09/07 07:54:49;;;;;;;16.03;8.50;;;23.30;1.00;;;;;;4987834;28;20239;-66
2022/09/07 07:57:18;;;;;;;10.63;6.53;;;23.70;99.90;;;;;;4988727;28;20432;-66
2022/09/07 07:59:44;;;;;;;23.17;8.73;;;24.20;53.90;;;;;;4988477;28;20451;-66
2022/09/07 08:02:14;;;;;;;18.97;8.23;;;24.60;1.00;;;;;;4992116;28;20931;-66
2022/09/07 08:04:40;;;;;;;12.17;6.67;;;24.80;1.00;;;;;;4989366;28;20197;-66
2022/09/07 08:07:06;;;;;;;23.00;5.80;;;25.10;1.00;;;;;;4989016;28;20436;-66
2022/09/07 08:09:31;;;;;;;26.07;7.80;;;25.30;1.00;;;;;;4995299;28;20621;-67
2022/09/07 08:11:57;;;;;;;25.47;6.13;;;25.40;1.00;;;;;;5001491;28;20288;-67
2022/09/07 08:14:23;;;;;;;16.67;6.17;;;25.50;1.00;;;;;;5003484;28;20988;-67
2022/09/07 08:16:49;;;;;;;17.37;5.83;;;25.60;1.00;;;;;;4995712;28;20248;-66
2022/09/07 08:19:14;;;;;;;15.40;5.17;;;25.70;1.00;;;;;;4993500;28;20249;-67
2022/09/07 08:21:40;;;;;;;23.60;5.90;;;26.00;1.00;;;;;;4993111;28;20237;-66
2022/09/07 08:24:06;;;;;;;15.50;6.10;;;25.90;1.00;;;;;;4990654;28;20199;-67
2022/09/07 08:26:31;;;;;;;14.57;5.73;;;25.90;1.00;;;;;;4992093;28;20189;-66
2022/09/07 08:28:57;;;;;;;22.67;6.67;;;25.90;1.00;;;;;;4991141;28;20181;-67
2022/09/07 08:31:23;;;;;;;8.67;5.07;;;25.70;1.00;;;;;;4991800;28;20246;-67
2022/09/07 08:33:49;;;;;;;14.73;5.60;;;25.60;1.00;;;;;;4989888;28;20205;-67
2022/09/07 08:36:19;;;;;;;22.97;6.23;;;25.80;1.00;;;;;;4992093;28;20209;-67
2022/09/07 08:38:46;;;;;;;23.50;5.90;;;25.90;1.00;;;;;;4990385;28;20177;-66
2022/09/07 08:41:25;;;;;;;13.07;5.20;;;26.10;1.00;;;;;;4992795;28;20521;-66
2022/09/07 08:43:58;;;;;;;24.97;6.57;;;26.20;1.00;;;;;;4990929;28;20714;-66
2022/09/07 08:46:45;;;;;;;29.63;7.83;;;26.10;1.00;;;;;;4990160;28;20428;-66
2022/09/07 08:49:34;;;;;;;17.40;5.60;;;26.00;1.00;;;;;;4990649;28;20557;-67
2022/09/07 08:52:07;;;;;;;11.57;4.63;;;25.90;1.00;;;;;;4990163;28;20518;-67
2022/09/07 08:54:33;;;;;;;9.80;4.40;;;26.00;1.00;;;;;;4990810;28;20519;-66
2022/09/07 08:57:02;;;;;;;13.10;5.90;;;26.10;1.00;;;;;;4991010;28;20626;-66
2022/09/07 08:59:41;;;;;;;12.80;5.87;;;26.10;99.90;;;;;;4985057;28;20423;-67
2022/09/07 09:02:13;;;;;;;28.40;7.00;;;26.30;99.90;;;;;;4989438;28;20943;-66
2022/09/07 09:04:41;;;;;;;20.03;5.33;;;26.40;99.90;;;;;;4990891;28;20454;-66
2022/09/07 09:07:34;;;;;;;11.00;5.03;;;26.50;99.90;;;;;;4990507;28;20499;-66
2022/09/07 09:10:24;;;;;;;13.93;4.87;;;26.60;99.90;;;;;;4992065;28;20447;-67
2022/09/07 09:13:02;;;;;;;24.73;7.40;;;26.60;99.90;;;;;;4985063;28;20431;-67
2022/09/07 09:15:46;;;;;;;13.20;5.60;;;26.60;99.90;;;;;;4991767;28;20483;-66
2022/09/07 09:18:32;;;;;;;28.43;7.37;;;26.70;99.90;;;;;;4991151;28;20454;-67
2022/09/07 09:20:59;;;;;;;16.13;5.23;;;26.80;99.90;;;;;;4986164;28;20439;-67
2022/09/07 09:23:30;;;;;;;7.70;5.27;;;27.00;99.90;;;;;;4989211;28;20443;-66
2022/09/07 09:26:00;;;;;;;11.23;4.20;;;27.00;99.90;;;;;;4989424;28;21002;-66
2022/09/07 09:28:26;;;;;;;6.87;4.10;;;27.20;99.90;;;;;;4989979;28;20419;-66
2022/09/07 09:30:51;;;;;;;11.17;4.77;;;26.90;99.90;;;;;;4987662;28;20451;-66
2022/09/07 09:33:20;;;;;;;18.73;5.17;;;27.10;99.90;;;;;;4990294;28;20655;-67
2022/09/07 09:35:52;;;;;;;12.27;4.63;;;27.00;99.90;;;;;;4989459;28;20508;-66
2022/09/07 09:38:33;;;;;;;6.87;3.70;;;27.00;99.90;;;;;;4989486;28;20419;-66
2022/09/07 09:41:08;;;;;;;6.67;4.40;;;26.90;99.90;;;;;;4990536;28;20486;-67
2022/09/07 09:43:53;;;;;;;6.60;4.67;;;27.20;99.90;;;;;;4988839;28;20455;-67
2022/09/07 09:46:24;;;;;;;11.80;4.80;;;27.20;99.90;;;;;;4984123;28;20435;-67
2022/09/07 09:48:54;;;;;;;10.37;5.87;;;27.30;99.90;;;;;;4982038;28;20420;-67
2022/09/07 09:51:21;;;;;;;18.10;6.10;;;27.40;99.90;;;;;;4990828;28;20455;-66
2022/09/07 09:54:01;;;;;;;16.23;4.93;;;27.50;99.90;;;;;;4999959;28;21090;-67
2022/09/07 09:56:42;;;;;;;20.00;5.77;;;27.70;99.90;;;;;;4989109;28;20407;-67
2022/09/07 09:59:17;;;;;;;7.87;4.03;;;27.90;99.90;;;;;;4986041;28;20551;-66
2022/09/07 10:01:45;;;;;;;5.47;4.17;;;27.90;99.90;;;;;;4990868;28;20685;-66
2022/09/07 10:04:22;;;;;;;13.70;5.20;;;27.90;99.90;;;;;;4996368;28;20406;-66
2022/09/07 10:06:53;;;;;;;11.70;5.30;;;28.00;99.90;;;;;;4988090;28;20519;-67
2022/09/07 10:09:25;;;;;;;6.87;3.90;;;27.90;99.90;;;;;;4988653;28;20407;-67
2022/09/07 10:12:02;;;;;;;6.83;4.23;;;27.50;99.90;;;;;;4987006;28;20483;-67
2022/09/07 10:14:43;;;;;;;7.67;4.17;;;27.40;99.90;;;;;;4989622;28;20474;-66
2022/09/07 10:17:18;;;;;;;29.57;6.30;;;27.50;99.90;;;;;;4988385;28;20522;-65
2022/09/07 10:19:44;;;;;;;11.67;4.10;;;27.60;99.90;;;;;;4990911;28;20537;-66
2022/09/07 10:22:31;;;;;;;15.20;4.70;;;27.80;99.90;;;;;;4993567;28;20786;-67
2022/09/07 10:24:57;;;;;;;9.87;3.83;;;27.80;99.90;;;;;;4984571;28;20231;-66
2022/09/07 10:27:37;;;;;;;13.13;3.87;;;27.60;99.90;;;;;;4987710;28;20416;-66
2022/09/07 10:30:14;;;;;;;9.47;4.20;;;27.70;99.90;;;;;;4987570;28;20180;-67
2022/09/07 10:33:01;;;;;;;14.97;4.30;;;27.80;99.90;;;;;;4995081;28;20459;-66
2022/09/07 10:35:38;;;;;;;35.30;6.40;;;28.10;99.90;;;;;;4993142;28;20819;-67
2022/09/07 10:38:10;;;;;;;11.27;3.93;;;28.30;99.90;;;;;;4989966;28;21305;-66
2022/09/07 10:40:44;;;;;;;5.00;3.03;;;28.30;99.90;;;;;;4991147;28;20990;-67
2022/09/07 10:43:28;;;;;;;9.97;3.50;;;27.90;99.90;;;;;;4996388;28;20441;-66
2022/09/07 10:46:10;;;;;;;6.03;3.47;;;27.80;99.90;;;;;;5008615;28;20481;-67
2022/09/07 10:49:05;;;;;;;8.20;3.00;;;27.80;99.90;;;;;;5009766;28;20422;-67
2022/09/07 10:52:02;;;;;;;13.87;4.00;;;27.60;99.90;;;;;;4983846;28;20939;-66
2022/09/07 10:54:39;;;;;;;13.40;3.97;;;27.80;99.90;;;;;;4997870;28;20470;-67
2022/09/07 10:57:25;;;;;;;42.90;6.03;;;27.80;99.90;;;;;;5007977;28;20923;-67
2022/09/07 10:59:57;;;;;;;25.83;5.90;;;27.80;99.90;;;;;;4987115;28;20517;-67
2022/09/07 11:02:39;;;;;;;8.60;4.23;;;27.60;99.90;;;;;;5001363;28;20437;-67
2022/09/07 11:05:10;;;;;;;14.13;4.20;;;27.60;99.90;;;;;;5005542;28;20454;-67
2022/09/07 11:07:57;;;;;;;16.80;5.10;;;27.70;99.90;;;;;;4992899;28;20425;-67
2022/09/07 11:10:48;;;;;;;18.83;4.67;;;27.90;99.90;;;;;;4998013;28;20525;-67
2022/09/07 11:13:21;;;;;;;11.83;4.30;;;27.90;99.90;;;;;;4992814;28;20458;-67
2022/09/07 11:16:12;;;;;;;8.17;3.03;;;27.80;99.90;;;;;;4997363;28;20458;-66
2022/09/07 11:19:06;;;;;;;21.63;6.00;;;27.80;99.90;;;;;;4996443;28;20423;-67
2022/09/07 11:21:58;;;;;;;16.13;4.90;;;27.80;99.90;;;;;;4999202;28;20438;-66
2022/09/07 11:24:45;;;;;;;13.77;4.40;;;27.40;99.90;;;;;;5006858;28;20439;-66
2022/09/07 11:27:21;;;;;;;7.60;3.90;;;27.50;99.90;;;;;;5006212;28;20427;-66
2022/09/07 11:29:57;;;;;;;7.23;3.50;;;27.70;99.90;;;;;;4988803;28;20424;-66
2022/09/07 11:32:39;;;;;;;9.47;4.30;;;27.80;99.90;;;;;;4997090;28;20499;-66
2022/09/07 11:35:22;;;;;;;8.50;3.73;;;28.00;99.90;;;;;;5000377;28;20463;-66
2022/09/07 11:37:58;;;;;;;10.87;4.10;;;28.00;99.90;;;;;;4986890;28;20418;-66
2022/09/07 11:40:30;;;;;;;13.23;3.90;;;27.60;99.90;;;;;;4998709;28;20914;-66
2022/09/07 11:43:24;;;;;;;5.87;4.13;;;27.60;99.90;;;;;;4994299;28;21062;-67
2022/09/07 11:46:16;;;;;;;8.70;3.40;;;27.60;99.90;;;;;;4995918;28;20467;-66
2022/09/07 11:48:54;;;;;;;10.50;3.40;;;27.70;99.90;;;;;;4991145;28;20868;-67
2022/09/07 11:51:25;;;;;;;8.03;3.23;;;27.70;99.90;;;;;;4996350;28;20790;-66
2022/09/07 11:54:00;;;;;;;3.90;3.10;;;27.50;99.90;;;;;;5001735;28;20506;-66
2022/09/07 11:56:33;;;;;;;26.73;5.83;;;27.30;99.90;;;;;;4995969;28;20484;-66
2022/09/07 11:59:14;;;;;;;10.27;3.90;;;27.40;99.90;;;;;;4996797;28;20420;-66
2022/09/07 12:01:55;;;;;;;6.27;3.50;;;27.60;99.90;;;;;;5006631;28;20427;-66
2022/09/07 12:04:38;;;;;;;11.20;4.30;;;27.70;99.90;;;;;;5003668;28;20427;-66
2022/09/07 12:07:32;;;;;;;6.30;2.83;;;27.80;99.90;;;;;;4994498;28;20432;-66
2022/09/07 12:10:10;;;;;;;8.80;4.20;;;27.90;99.90;;;;;;4987325;28;20518;-67
2022/09/07 12:13:09;;;;;;;4.90;3.13;;;28.00;99.90;;;;;;4990077;28;20471;-66
2022/09/07 12:16:13;;;;;;;4.83;3.60;;;28.10;99.90;;;;;;5005185;28;20470;-67
2022/09/07 12:19:09;;;;;;;6.43;2.97;;;28.10;99.90;;;;;;4991039;28;20469;-66
2022/09/07 12:21:42;;;;;;;12.50;3.30;;;28.20;99.90;;;;;;4990569;28;20423;-66
2022/09/07 12:24:47;;;;;;;59.63;8.07;;;28.30;99.90;;;;;;4995498;28;20445;-67
2022/09/07 12:27:19;;;;;;;20.30;4.83;;;28.20;99.90;;;;;;4984881;28;20731;-66
2022/09/07 12:30:09;;;;;;;5.10;3.53;;;28.30;99.90;;;;;;4990659;28;20442;-67
2022/09/07 12:32:47;;;;;;;12.80;2.87;;;27.80;99.90;;;;;;4989636;28;20554;-67
2022/09/07 12:35:30;;;;;;;5.13;2.90;;;27.80;99.90;;;;;;4984255;28;20993;-67
2022/09/07 12:38:16;;;;;;;4.23;2.57;;;27.70;99.90;;;;;;4991527;28;20842;-66
2022/09/07 12:40:57;;;;;;;5.70;2.70;;;27.60;99.90;;;;;;4977964;28;20522;-66
2022/09/07 12:43:44;;;;;;;18.53;4.07;;;27.70;99.90;;;;;;4986988;28;21168;-66
2022/09/07 12:46:28;;;;;;;13.30;3.70;;;27.90;99.90;;;;;;4990803;28;20461;-65
2022/09/07 12:49:06;;;;;;;26.33;5.40;;;27.90;99.90;;;;;;4990184;28;21125;-65
2022/09/07 12:51:36;;;;;;;18.30;4.40;;;28.00;99.90;;;;;;4991176;28;20461;-65
2022/09/07 12:54:40;;;;;;;9.07;2.80;;;28.20;99.90;;;;;;4993262;28;20498;-65
2022/09/07 12:57:27;;;;;;;9.47;3.70;;;28.30;99.90;;;;;;4957727;28;20438;-66
2022/09/07 13:00:14;;;;;;;39.73;5.10;;;28.30;99.90;;;;;;4987964;28;20415;-65
2022/09/07 13:02:46;;;;;;;11.90;3.20;;;28.20;99.90;;;;;;4988454;28;20517;-66
2022/09/07 13:05:26;;;;;;;27.07;4.77;;;28.00;99.90;;;;;;4987708;28;20545;-66
2022/09/07 13:08:13;;;;;;;12.60;3.60;;;28.10;99.90;;;;;;4986711;28;20925;-67
2022/09/07 13:10:43;;;;;;;15.80;3.97;;;28.20;99.90;;;;;;4988179;28;20963;-65